Time;durP1;ratioP1;P1;durP2;ratioP2;P2;SDS_P1;SDS_P2;PMS_P1;PMS_P2;Temp;Humidity;BMP_temperature;BMP_pressure;BME280_temperature;BME280_humidity;BME280_pressure;Samples;Min_cycle;Max_cycle;Signal;HPM_P1;HPM_P2
2023/07/20 00:01:15;;;;;;;7.28;5.40;;;14.30;89.90;;;;;;5071985;28;20646;-88
2023/07/20 00:03:41;;;;;;;5.65;5.25;;;14.30;90.00;;;;;;5072066;28;20731;-88
2023/07/20 00:06:06;;;;;;;5.35;4.93;;;14.30;90.20;;;;;;5072682;28;20252;-89
2023/07/20 00:08:32;;;;;;;10.45;5.57;;;14.40;90.20;;;;;;5071853;28;20183;-89
2023/07/20 00:10:58;;;;;;;6.60;5.88;;;14.30;90.30;;;;;;5071974;28;20270;-89
2023/07/20 00:13:23;;;;;;;9.80;6.17;;;14.30;90.50;;;;;;5072260;28;20570;-88
2023/07/20 00:15:49;;;;;;;8.15;6.43;;;14.20;90.80;;;;;;5073290;28;20168;-88
2023/07/20 00:18:15;;;;;;;10.48;6.03;;;14.20;91.10;;;;;;5072194;28;20182;-88
2023/07/20 00:20:40;;;;;;;10.20;6.75;;;14.20;91.30;;;;;;5071855;28;20197;-88
2023/07/20 00:23:06;;;;;;;9.52;6.45;;;14.10;91.50;;;;;;5072614;28;20270;-88
2023/07/20 00:25:33;;;;;;;6.90;6.30;;;14.00;91.70;;;;;;5076361;28;20206;-88
2023/07/20 00:27:58;;;;;;;7.33;6.30;;;14.00;91.90;;;;;;5077661;28;20597;-88
2023/07/20 00:30:24;;;;;;;7.03;6.33;;;14.00;92.20;;;;;;5076660;28;20183;-88
2023/07/20 00:32:49;;;;;;;9.50;6.30;;;13.90;92.50;;;;;;5076093;28;20605;-88
2023/07/20 00:35:15;;;;;;;7.60;6.93;;;13.90;92.60;;;;;;5076050;28;20190;-88
2023/07/20 00:37:41;;;;;;;7.43;6.67;;;14.00;92.70;;;;;;5075828;28;20667;-88
2023/07/20 00:40:09;;;;;;;7.40;6.63;;;14.00;92.80;;;;;;5075929;28;20216;-88
2023/07/20 00:42:35;;;;;;;11.50;6.93;;;14.00;92.80;;;;;;5075884;28;20174;-88
2023/07/20 00:45:01;;;;;;;11.10;7.20;;;14.00;92.90;;;;;;5076453;28;20195;-88
2023/07/20 00:47:27;;;;;;;8.67;7.53;;;14.00;92.90;;;;;;5076790;28;20171;-88
2023/07/20 00:49:53;;;;;;;8.70;7.43;;;14.00;93.00;;;;;;5075494;28;20654;-88
2023/07/20 00:52:21;;;;;;;8.80;6.80;;;14.00;93.20;;;;;;5075324;28;20182;-88
2023/07/20 00:54:47;;;;;;;9.97;6.83;;;14.00;93.20;;;;;;5075196;28;20195;-88
2023/07/20 00:57:15;;;;;;;10.98;7.28;;;14.00;93.20;;;;;;5075274;28;20714;-88
2023/07/20 00:59:41;;;;;;;10.98;6.53;;;14.00;93.30;;;;;;5075270;28;20270;-88
2023/07/20 01:02:06;;;;;;;6.68;5.97;;;14.10;93.30;;;;;;5075180;28;20722;-88
2023/07/20 01:04:33;;;;;;;9.05;6.55;;;14.00;93.30;;;;;;5076093;28;20202;-88
2023/07/20 01:07:06;;;;;;;7.63;6.90;;;14.00;93.40;;;;;;5075005;28;20572;-88
2023/07/20 01:09:34;;;;;;;6.93;6.32;;;14.00;93.40;;;;;;5075162;28;20195;-87
2023/07/20 01:12:07;;;;;;;17.30;6.90;;;14.00;93.50;;;;;;5075205;28;20654;-88
2023/07/20 01:14:34;;;;;;;8.43;6.75;;;14.00;93.50;;;;;;5076517;28;20624;-88
2023/07/20 01:16:59;;;;;;;10.02;6.95;;;14.00;93.60;;;;;;5075333;28;20613;-88
2023/07/20 01:19:25;;;;;;;10.88;8.00;;;14.10;93.70;;;;;;5076169;28;20183;-88
2023/07/20 01:21:56;;;;;;;10.70;6.63;;;14.20;93.70;;;;;;5076341;28;20635;-87
2023/07/20 01:24:51;;;;;;;7.32;6.63;;;14.10;93.60;;;;;;5074911;28;20324;-88
2023/07/20 01:27:44;;;;;;;10.35;6.28;;;14.20;93.60;;;;;;5074898;28;20556;-89
2023/07/20 01:30:34;;;;;;;7.38;6.68;;;14.20;93.50;;;;;;5074778;28;20258;-88
2023/07/20 01:33:01;;;;;;;6.25;5.75;;;14.10;93.40;;;;;;5074979;28;20534;-88
2023/07/20 01:35:29;;;;;;;10.30;6.43;;;14.10;93.40;;;;;;5075089;28;20635;-87
2023/07/20 01:37:55;;;;;;;6.93;6.25;;;14.00;93.40;;;;;;5075954;28;20643;-87
2023/07/20 01:40:21;;;;;;;6.53;5.93;;;14.00;93.40;;;;;;5074477;28;20175;-87
2023/07/20 01:42:48;;;;;;;6.30;5.70;;;14.00;93.40;;;;;;5075845;28;20246;-87
2023/07/20 01:45:13;;;;;;;6.97;6.33;;;13.90;93.50;;;;;;5075976;28;20202;-87
2023/07/20 01:47:39;;;;;;;6.73;6.10;;;13.90;93.50;;;;;;5074545;28;20172;-88
2023/07/20 01:50:06;;;;;;;7.47;6.60;;;13.90;93.60;;;;;;5075552;28;20198;-87
2023/07/20 01:52:32;;;;;;;7.93;6.77;;;14.00;93.60;;;;;;5074688;28;20271;-87
2023/07/20 01:54:57;;;;;;;7.32;6.63;;;14.00;93.60;;;;;;5074541;28;20222;-87
2023/07/20 01:57:23;;;;;;;9.17;6.63;;;13.90;93.60;;;;;;5074675;28;20191;-88
2023/07/20 01:59:48;;;;;;;8.00;5.75;;;14.00;93.60;;;;;;5074217;28;20631;-88
2023/07/20 02:02:14;;;;;;;6.30;5.70;;;14.10;93.70;;;;;;5075171;28;20167;-87
2023/07/20 02:04:39;;;;;;;6.40;5.80;;;13.90;93.60;;;;;;5074175;28;20191;-88
2023/07/20 02:07:05;;;;;;;6.30;5.80;;;13.90;93.70;;;;;;5074115;28;20195;-87
2023/07/20 02:09:31;;;;;;;6.70;6.00;;;13.90;93.70;;;;;;5075395;28;20195;-87
2023/07/20 02:11:56;;;;;;;6.13;5.60;;;13.90;93.70;;;;;;5075494;28;20182;-87
2023/07/20 02:14:24;;;;;;;6.13;5.57;;;13.80;93.70;;;;;;5073878;28;20558;-88
2023/07/20 02:16:57;;;;;;;6.03;5.53;;;13.80;93.80;;;;;;5073862;28;20270;-87
2023/07/20 02:19:24;;;;;;;7.03;5.70;;;13.80;93.80;;;;;;5074064;28;20189;-87
2023/07/20 02:21:49;;;;;;;7.10;5.77;;;13.80;93.80;;;;;;5074051;28;20198;-87
2023/07/20 02:24:15;;;;;;;6.63;6.03;;;13.80;93.80;;;;;;5073825;28;20680;-87
2023/07/20 02:26:41;;;;;;;10.40;6.13;;;13.80;93.80;;;;;;5073795;28;20203;-87
2023/07/20 02:29:07;;;;;;;9.73;5.40;;;13.80;93.80;;;;;;5073737;28;20183;-88
2023/07/20 02:31:33;;;;;;;6.63;5.57;;;13.90;93.80;;;;;;5073580;28;20260;-88
2023/07/20 02:33:58;;;;;;;9.55;5.97;;;14.00;93.80;;;;;;5073696;28;20687;-87
2023/07/20 02:36:24;;;;;;;9.30;6.63;;;13.90;93.80;;;;;;5074877;28;20175;-88
2023/07/20 02:38:49;;;;;;;9.23;6.22;;;13.90;93.80;;;;;;5073459;28;20175;-87
2023/07/20 02:41:15;;;;;;;11.73;6.27;;;13.90;93.80;;;;;;5074706;28;20657;-87
2023/07/20 02:43:40;;;;;;;10.00;6.80;;;14.00;93.80;;;;;;5074744;28;20195;-87
2023/07/20 02:46:06;;;;;;;8.40;7.37;;;13.80;93.80;;;;;;5073052;28;20210;-88
2023/07/20 02:48:31;;;;;;;7.33;6.73;;;13.80;93.90;;;;;;5073398;28;20617;-87
2023/07/20 02:50:57;;;;;;;7.83;7.13;;;13.80;94.00;;;;;;5073275;28;20646;-87
2023/07/20 02:53:22;;;;;;;8.20;7.50;;;13.80;94.10;;;;;;5073028;28;20187;-87
2023/07/20 02:55:48;;;;;;;7.93;7.33;;;13.80;94.10;;;;;;5073103;28;20182;-87
2023/07/20 02:58:13;;;;;;;7.40;6.80;;;13.80;94.20;;;;;;5073169;28;20184;-87
2023/07/20 03:00:39;;;;;;;8.07;7.03;;;13.80;94.20;;;;;;5074329;28;20171;-87
2023/07/20 03:03:09;;;;;;;8.57;7.17;;;13.80;94.20;;;;;;5074204;28;20175;-87
2023/07/20 03:05:37;;;;;;;7.63;6.70;;;13.80;94.20;;;;;;5074411;28;20624;-87
2023/07/20 03:08:03;;;;;;;12.73;7.43;;;13.80;94.30;;;;;;5074127;28;20195;-87
2023/07/20 03:10:29;;;;;;;7.63;7.03;;;13.80;94.30;;;;;;5072926;28;20237;-87
2023/07/20 03:12:54;;;;;;;9.87;7.53;;;13.80;94.40;;;;;;5072741;28;20561;-87
2023/07/20 03:15:20;;;;;;;7.83;7.03;;;13.80;94.40;;;;;;5072855;28;20670;-87
2023/07/20 03:17:45;;;;;;;12.80;7.40;;;13.80;94.40;;;;;;5072810;28;20179;-87
2023/07/20 03:20:12;;;;;;;8.57;6.90;;;13.80;94.40;;;;;;5073811;28;20284;-87
2023/07/20 03:22:38;;;;;;;6.87;6.17;;;13.90;94.40;;;;;;5073819;28;20274;-87
2023/07/20 03:25:04;;;;;;;10.27;7.73;;;13.80;94.40;;;;;;5072386;28;20274;-87
2023/07/20 03:27:30;;;;;;;8.63;7.20;;;13.80;94.40;;;;;;5073867;28;20167;-86
2023/07/20 03:29:55;;;;;;;14.27;7.00;;;13.80;94.40;;;;;;5072595;28;20650;-88
2023/07/20 03:32:21;;;;;;;10.63;7.17;;;13.80;94.40;;;;;;5072519;28;20702;-87
2023/07/20 03:34:46;;;;;;;6.77;6.27;;;13.80;94.40;;;;;;5072399;28;20286;-87
2023/07/20 03:37:13;;;;;;;7.13;6.47;;;13.80;94.40;;;;;;5072768;28;20183;-87
2023/07/20 03:39:38;;;;;;;8.00;7.10;;;13.80;94.40;;;;;;5072380;28;20201;-87
2023/07/20 03:42:04;;;;;;;8.02;7.32;;;13.70;94.30;;;;;;5072785;28;20698;-87
2023/07/20 03:44:30;;;;;;;11.80;7.60;;;13.70;94.40;;;;;;5072277;28;20203;-88
2023/07/20 03:46:56;;;;;;;14.30;7.90;;;13.70;94.40;;;;;;5072612;28;20211;-87
2023/07/20 03:49:21;;;;;;;14.60;7.60;;;13.70;94.40;;;;;;5072271;28;20172;-87
2023/07/20 03:51:47;;;;;;;9.73;7.00;;;13.70;94.30;;;;;;5072387;28;20197;-88
2023/07/20 03:54:12;;;;;;;10.27;7.30;;;13.70;94.30;;;;;;5073466;28;20191;-88
2023/07/20 03:56:38;;;;;;;8.00;7.30;;;13.60;94.20;;;;;;5072235;28;20179;-87
2023/07/20 03:59:03;;;;;;;8.77;7.63;;;13.60;94.20;;;;;;5071426;28;20180;-87
2023/07/20 04:01:29;;;;;;;13.40;7.67;;;13.50;94.20;;;;;;5073708;28;20179;-87
2023/07/20 04:03:55;;;;;;;11.67;8.30;;;13.50;94.10;;;;;;5072319;28;20581;-87
2023/07/20 04:06:20;;;;;;;13.33;7.83;;;13.50;94.10;;;;;;5072001;28;20199;-87
2023/07/20 04:08:47;;;;;;;10.60;7.13;;;13.60;94.10;;;;;;5072040;28;20178;-88
2023/07/20 04:11:12;;;;;;;11.27;7.70;;;13.70;94.00;;;;;;5072172;28;20171;-88
2023/07/20 04:13:38;;;;;;;16.43;8.60;;;13.70;94.00;;;;;;5073152;28;20696;-88
2023/07/20 04:16:04;;;;;;;9.17;7.57;;;13.70;94.00;;;;;;5073074;28;20177;-88
2023/07/20 04:18:30;;;;;;;11.37;7.33;;;13.80;93.90;;;;;;5072002;28;20252;-87
2023/07/20 04:20:55;;;;;;;8.13;7.13;;;13.80;93.80;;;;;;5071701;28;20190;-87
2023/07/20 04:23:21;;;;;;;12.57;7.70;;;14.00;93.80;;;;;;5073167;28;20206;-87
2023/07/20 04:25:46;;;;;;;16.07;8.47;;;13.90;93.70;;;;;;5071953;28;20226;-88
2023/07/20 04:28:12;;;;;;;11.93;7.43;;;14.00;93.70;;;;;;5071800;28;20208;-87
2023/07/20 04:30:40;;;;;;;12.27;7.70;;;13.90;93.50;;;;;;5073093;28;20547;-88
2023/07/20 04:33:06;;;;;;;13.30;7.15;;;14.00;93.50;;;;;;5071634;28;20528;-87
2023/07/20 04:35:54;;;;;;;16.63;6.50;;;14.00;93.40;;;;;;5071755;28;20239;-87
2023/07/20 04:38:20;;;;;;;12.73;6.80;;;14.00;93.40;;;;;;5071859;28;20198;-87
2023/07/20 04:40:49;;;;;;;14.77;7.80;;;14.00;93.30;;;;;;5071992;28;20661;-87
2023/07/20 04:43:17;;;;;;;13.27;6.80;;;14.10;93.30;;;;;;5071570;28;20647;-87
2023/07/20 04:45:43;;;;;;;11.33;6.87;;;14.10;93.30;;;;;;5072126;28;20203;-87
2023/07/20 04:48:14;;;;;;;10.40;6.87;;;14.20;93.30;;;;;;5071615;28;20172;-88
2023/07/20 04:50:44;;;;;;;7.73;6.60;;;14.10;93.30;;;;;;5071677;28;20159;-87
2023/07/20 04:53:14;;;;;;;10.73;7.50;;;14.20;93.20;;;;;;5072803;28;20218;-87
2023/07/20 04:55:40;;;;;;;12.10;6.57;;;14.20;93.30;;;;;;5073145;28;20175;-87
2023/07/20 04:58:06;;;;;;;7.30;6.07;;;14.30;93.20;;;;;;5071924;28;20305;-87
2023/07/20 05:00:37;;;;;;;7.50;5.78;;;14.40;93.20;;;;;;5071564;28;20179;-88
2023/07/20 05:03:05;;;;;;;9.63;6.30;;;14.30;93.00;;;;;;5071493;28;20179;-87
2023/07/20 05:05:30;;;;;;;9.40;6.10;;;14.30;92.90;;;;;;5072666;28;20587;-88
2023/07/20 05:07:56;;;;;;;8.85;6.28;;;14.20;92.90;;;;;;5071424;28;20171;-87
2023/07/20 05:10:21;;;;;;;8.75;6.00;;;14.30;92.90;;;;;;5075106;28;20194;-87
2023/07/20 05:12:47;;;;;;;9.98;6.65;;;14.30;92.80;;;;;;5075075;28;20172;-88
2023/07/20 05:15:12;;;;;;;13.10;6.43;;;14.30;92.70;;;;;;5075377;28;20187;-87
2023/07/20 05:17:39;;;;;;;8.82;6.18;;;14.30;92.70;;;;;;5075016;28;20221;-87
2023/07/20 05:20:05;;;;;;;12.70;6.70;;;14.30;92.60;;;;;;5075333;28;20175;-87
2023/07/20 05:22:30;;;;;;;8.87;6.20;;;14.40;92.50;;;;;;5075049;28;20187;-89
2023/07/20 05:24:56;;;;;;;9.48;5.80;;;14.40;92.40;;;;;;5074846;28;20752;-88
2023/07/20 05:27:22;;;;;;;16.17;6.28;;;14.50;92.30;;;;;;5074854;28;20200;-87
2023/07/20 05:29:47;;;;;;;9.88;5.43;;;14.60;92.20;;;;;;5076004;28;20194;-87
2023/07/20 05:32:13;;;;;;;6.27;5.30;;;14.70;92.10;;;;;;5074749;28;20172;-87
2023/07/20 05:34:39;;;;;;;6.40;5.10;;;14.60;91.60;;;;;;5074821;28;20195;-87
2023/07/20 05:37:05;;;;;;;9.82;5.47;;;14.60;91.10;;;;;;5074824;28;20667;-88
2023/07/20 05:39:32;;;;;;;10.20;5.50;;;14.80;91.20;;;;;;5074699;28;20203;-87
2023/07/20 05:41:58;;;;;;;11.95;5.97;;;14.80;91.20;;;;;;5074780;28;20647;-87
2023/07/20 05:44:24;;;;;;;8.87;6.20;;;15.00;91.00;;;;;;5074436;28;20201;-86
2023/07/20 05:46:49;;;;;;;8.63;5.45;;;15.10;91.00;;;;;;5075860;28;20670;-86
2023/07/20 05:49:14;;;;;;;9.82;5.40;;;15.20;91.00;;;;;;5074450;28;20171;-87
2023/07/20 05:51:40;;;;;;;7.07;5.43;;;15.10;90.80;;;;;;5076300;28;20167;-87
2023/07/20 05:54:06;;;;;;;9.73;5.35;;;15.00;90.30;;;;;;5074167;28;20187;-87
2023/07/20 05:56:31;;;;;;;9.90;5.72;;;14.80;89.90;;;;;;5074244;28;20179;-86
2023/07/20 05:58:57;;;;;;;8.25;6.10;;;15.00;90.10;;;;;;5074166;28;20219;-86
2023/07/20 06:01:22;;;;;;;11.38;6.32;;;15.00;89.90;;;;;;5074243;28;20266;-86
2023/07/20 06:03:48;;;;;;;6.72;5.38;;;15.20;89.80;;;;;;5074080;28;20191;-86
2023/07/20 06:06:14;;;;;;;6.70;6.10;;;15.30;89.70;;;;;;5075290;28;20264;-86
2023/07/20 06:08:40;;;;;;;14.02;6.53;;;15.30;89.20;;;;;;5074034;28;20715;-88
2023/07/20 06:11:05;;;;;;;8.02;6.47;;;15.40;88.80;;;;;;5074087;28;20325;-88
2023/07/20 06:13:31;;;;;;;7.10;6.40;;;15.30;87.70;;;;;;5073878;28;20281;-87
2023/07/20 06:15:56;;;;;;;12.07;7.25;;;15.30;88.30;;;;;;5074319;28;20195;-87
2023/07/20 06:18:25;;;;;;;7.95;6.28;;;15.30;88.40;;;;;;5073942;28;20186;-90
2023/07/20 06:20:51;;;;;;;12.07;6.30;;;15.20;87.90;;;;;;5073741;28;20559;-89
2023/07/20 06:23:18;;;;;;;6.85;6.25;;;15.30;88.30;;;;;;5075908;28;20202;-90
2023/07/20 06:25:44;;;;;;;6.57;5.60;;;15.30;88.10;;;;;;5074424;28;20206;-89
2023/07/20 06:28:10;;;;;;;6.65;6.05;;;15.50;88.30;;;;;;5074273;28;20175;-90
2023/07/20 06:30:35;;;;;;;7.10;5.85;;;15.50;87.90;;;;;;5074106;28;20610;-90
2023/07/20 06:33:01;;;;;;;10.80;6.28;;;15.50;86.60;;;;;;5074027;28;20643;-89
2023/07/20 06:35:26;;;;;;;6.68;6.05;;;15.70;87.00;;;;;;5074467;28;20180;-89
2023/07/20 06:37:52;;;;;;;7.10;6.45;;;15.90;87.30;;;;;;5073743;28;20270;-89
2023/07/20 06:40:18;;;;;;;8.23;6.38;;;15.90;86.50;;;;;;5073853;28;20175;-89
2023/07/20 06:42:44;;;;;;;13.73;8.10;;;15.90;87.00;;;;;;5075419;28;20700;-88
2023/07/20 06:45:10;;;;;;;14.18;7.80;;;15.30;86.00;;;;;;5075034;28;20195;-88
2023/07/20 06:47:37;;;;;;;8.23;7.10;;;15.00;86.90;;;;;;5075081;28;20172;-89
2023/07/20 06:50:03;;;;;;;7.97;7.20;;;14.80;88.00;;;;;;5073788;28;20224;-89
2023/07/20 06:52:29;;;;;;;8.07;6.60;;;14.90;88.60;;;;;;5074813;28;20250;-89
2023/07/20 06:54:54;;;;;;;7.05;6.35;;;14.80;89.00;;;;;;5074849;28;20675;-88
2023/07/20 06:57:20;;;;;;;10.38;6.20;;;14.90;89.20;;;;;;5073599;28;20254;-89
2023/07/20 06:59:45;;;;;;;6.85;5.88;;;15.00;89.70;;;;;;5075325;28;20649;-88
2023/07/20 07:02:11;;;;;;;9.15;6.22;;;15.00;89.50;;;;;;5074132;28;20179;-89
2023/07/20 07:04:36;;;;;;;8.18;5.63;;;15.00;89.50;;;;;;5074496;28;20666;-88
2023/07/20 07:07:03;;;;;;;6.72;5.78;;;15.20;89.80;;;;;;5073288;28;20290;-89
2023/07/20 07:09:29;;;;;;;12.20;7.32;;;15.40;89.00;;;;;;5073438;28;20258;-89
2023/07/20 07:11:54;;;;;;;9.98;7.72;;;15.50;88.40;;;;;;5073537;28;20610;-89
2023/07/20 07:14:20;;;;;;;12.52;7.97;;;15.40;87.10;;;;;;5074520;28;20561;-89
2023/07/20 07:16:45;;;;;;;10.27;7.57;;;15.40;86.50;;;;;;5073068;28;20175;-89
2023/07/20 07:19:11;;;;;;;8.70;7.00;;;15.60;86.90;;;;;;5073012;28;20182;-88
2023/07/20 07:21:36;;;;;;;9.55;8.57;;;15.80;87.50;;;;;;5072592;28;20201;-87
2023/07/20 07:24:03;;;;;;;8.75;7.75;;;15.80;85.90;;;;;;5072640;28;20218;-86
2023/07/20 07:26:29;;;;;;;11.52;9.70;;;15.90;85.30;;;;;;5073312;28;20206;-86
2023/07/20 07:28:54;;;;;;;12.15;9.30;;;15.90;84.30;;;;;;5077684;28;20542;-86
2023/07/20 07:31:20;;;;;;;17.95;8.95;;;16.10;84.50;;;;;;5078035;28;20167;-86
2023/07/20 07:33:46;;;;;;;11.98;9.35;;;16.20;85.10;;;;;;5074826;28;20187;-86
2023/07/20 07:36:11;;;;;;;17.27;10.48;;;16.10;83.90;;;;;;5072947;28;20707;-86
2023/07/20 07:38:38;;;;;;;10.90;9.60;;;16.00;83.70;;;;;;5074557;28;20179;-85
2023/07/20 07:41:03;;;;;;;12.82;9.77;;;15.80;83.80;;;;;;5075699;28;20179;-86
2023/07/20 07:43:29;;;;;;;10.88;9.23;;;15.80;84.30;;;;;;5073513;28;20572;-87
2023/07/20 07:45:55;;;;;;;15.75;9.43;;;16.00;84.90;;;;;;5072988;28;20206;-86
2023/07/20 07:48:21;;;;;;;15.00;8.80;;;16.30;85.60;;;;;;5075048;28;20234;-87
2023/07/20 07:50:47;;;;;;;13.48;9.00;;;16.30;83.90;;;;;;5072677;28;20677;-87
2023/07/20 07:53:13;;;;;;;16.35;10.45;;;16.60;84.60;;;;;;5074248;28;20172;-88
2023/07/20 07:55:38;;;;;;;13.15;10.30;;;16.50;82.00;;;;;;5072294;28;20167;-87
2023/07/20 07:58:04;;;;;;;17.00;10.57;;;16.60;82.60;;;;;;5073398;28;20647;-88
2023/07/20 08:00:29;;;;;;;11.73;10.45;;;16.70;81.30;;;;;;5071986;28;20175;-88
2023/07/20 08:02:55;;;;;;;14.57;12.02;;;16.80;79.70;;;;;;5071983;28;20175;-88
2023/07/20 08:05:20;;;;;;;16.67;12.15;;;16.80;78.60;;;;;;5071846;28;20674;-88
2023/07/20 08:07:46;;;;;;;13.00;11.90;;;16.90;78.30;;;;;;5073557;28;20649;-87
2023/07/20 08:10:11;;;;;;;12.52;11.40;;;17.00;77.10;;;;;;5071886;28;20163;-87
2023/07/20 08:12:37;;;;;;;12.80;11.55;;;17.20;77.80;;;;;;5071948;28;20175;-87
2023/07/20 08:15:03;;;;;;;13.90;12.57;;;17.20;77.40;;;;;;5073205;28;20248;-87
2023/07/20 08:17:29;;;;;;;14.20;11.05;;;17.20;75.40;;;;;;5072023;28;20213;-88
2023/07/20 08:19:54;;;;;;;11.40;10.30;;;17.40;78.10;;;;;;5071948;28;20172;-89
2023/07/20 08:22:20;;;;;;;12.95;11.75;;;17.60;78.40;;;;;;5072018;28;20767;-89
2023/07/20 08:24:46;;;;;;;12.93;11.55;;;17.50;76.60;;;;;;5071851;28;20202;-88
2023/07/20 08:27:11;;;;;;;15.95;11.18;;;17.50;77.10;;;;;;5074056;28;20226;-92
2023/07/20 08:29:37;;;;;;;14.40;12.93;;;17.30;76.60;;;;;;5075526;28;20543;-91
2023/07/20 08:32:04;;;;;;;16.08;12.02;;;17.30;74.30;;;;;;5075001;28;20177;-92
2023/07/20 08:34:30;;;;;;;13.60;12.35;;;17.50;76.10;;;;;;5076131;28;20195;-92
2023/07/20 08:36:56;;;;;;;13.38;12.25;;;17.60;75.30;;;;;;5074797;28;20181;-92
2023/07/20 08:39:22;;;;;;;13.65;12.35;;;17.80;73.70;;;;;;5074783;28;20175;-92
2023/07/20 08:41:49;;;;;;;13.48;12.45;;;18.00;72.70;;;;;;5074788;28;20642;-92
2023/07/20 08:44:15;;;;;;;13.00;11.70;;;18.20;71.90;;;;;;5075023;28;20210;-92
2023/07/20 08:46:42;;;;;;;12.27;11.13;;;18.10;74.70;;;;;;5078369;28;20199;-91
2023/07/20 08:49:07;;;;;;;11.98;10.43;;;18.10;77.10;;;;;;5076059;28;20544;-91
2023/07/20 08:51:35;;;;;;;12.88;8.80;;;17.20;80.70;;;;;;5075907;28;20171;-92
2023/07/20 08:54:02;;;;;;;8.82;8.05;;;16.40;83.20;;;;;;5076089;28;20190;-91
2023/07/20 08:56:29;;;;;;;8.35;7.38;;;15.60;84.10;;;;;;5075786;28;20187;-91
2023/07/20 08:58:54;;;;;;;8.18;6.60;;;15.40;84.70;;;;;;5076327;28;20262;-91
2023/07/20 09:01:22;;;;;;;7.70;6.90;;;15.30;85.20;;;;;;5076711;28;20631;-91
2023/07/20 09:03:48;;;;;;;8.48;6.43;;;15.20;85.40;;;;;;5076089;28;20211;-91
2023/07/20 09:06:13;;;;;;;9.35;7.15;;;15.50;86.20;;;;;;5075841;28;20285;-91
2023/07/20 09:08:40;;;;;;;6.50;5.85;;;15.70;86.00;;;;;;5076385;28;20651;-91
2023/07/20 09:11:06;;;;;;;10.60;6.32;;;16.20;86.20;;;;;;5076664;28;20244;-92
2023/07/20 09:13:33;;;;;;;11.05;6.85;;;16.50;85.30;;;;;;5077754;28;20191;-91
2023/07/20 09:15:59;;;;;;;8.02;6.93;;;16.70;83.20;;;;;;5077121;28;20206;-92
2023/07/20 09:18:25;;;;;;;15.25;6.40;;;16.90;83.50;;;;;;5077023;28;20175;-91
2023/07/20 09:20:51;;;;;;;9.45;7.28;;;17.30;84.20;;;;;;5076928;28;20191;-92
2023/07/20 09:23:16;;;;;;;9.85;8.75;;;17.50;82.40;;;;;;5079658;28;20230;-92
2023/07/20 09:25:42;;;;;;;9.85;8.23;;;17.40;80.40;;;;;;5078884;28;20225;-91
2023/07/20 09:28:07;;;;;;;10.65;9.70;;;17.70;81.00;;;;;;5079056;28;20179;-91
2023/07/20 09:30:33;;;;;;;12.73;11.68;;;17.80;78.70;;;;;;5079189;28;20171;-92
2023/07/20 09:32:59;;;;;;;11.23;10.40;;;17.90;76.20;;;;;;5077152;28;20225;-91
2023/07/20 09:35:25;;;;;;;11.75;10.95;;;18.00;77.00;;;;;;5077436;28;20203;-91
2023/07/20 09:37:53;;;;;;;13.20;12.00;;;18.20;76.70;;;;;;5078470;28;20171;-92
2023/07/20 09:40:20;;;;;;;14.40;13.18;;;18.30;74.60;;;;;;5081523;28;20186;-92
2023/07/20 09:42:46;;;;;;;13.07;11.98;;;17.90;73.40;;;;;;5078355;28;20183;-92
2023/07/20 09:45:12;;;;;;;12.45;11.20;;;18.30;75.40;;;;;;5078188;28;20191;-91
2023/07/20 09:47:38;;;;;;;13.32;12.30;;;18.60;73.50;;;;;;5077758;28;20183;-91
2023/07/20 09:50:10;;;;;;;13.95;12.65;;;18.30;73.10;;;;;;5078122;28;20179;-91
2023/07/20 09:52:37;;;;;;;13.38;12.20;;;17.80;73.00;;;;;;5078399;28;20631;-91
2023/07/20 09:55:04;;;;;;;13.50;12.40;;;17.50;72.30;;;;;;5077703;28;20187;-91
2023/07/20 09:57:30;;;;;;;12.85;11.85;;;17.90;72.90;;;;;;5079489;28;20206;-92
2023/07/20 09:59:57;;;;;;;13.48;12.15;;;18.30;73.40;;;;;;5078994;28;20175;-91
2023/07/20 10:02:30;;;;;;;14.18;12.82;;;18.70;73.50;;;;;;5078859;28;20171;-92
2023/07/20 10:04:58;;;;;;;15.30;12.70;;;18.70;73.20;;;;;;5077464;28;20573;-92
2023/07/20 10:07:27;;;;;;;14.65;13.05;;;18.90;72.20;;;;;;5078127;28;20195;-92
2023/07/20 10:09:53;;;;;;;13.82;12.50;;;18.40;72.60;;;;;;5077970;28;20206;-91
2023/07/20 10:12:22;;;;;;;14.48;13.07;;;18.50;73.00;;;;;;5076911;28;20178;-92
2023/07/20 10:14:57;;;;;;;12.57;11.60;;;18.60;71.20;;;;;;5076510;28;20195;-92
2023/07/20 10:17:25;;;;;;;14.20;12.95;;;19.00;72.70;;;;;;5076312;28;20177;-91
2023/07/20 10:19:56;;;;;;;14.60;13.30;;;19.00;70.70;;;;;;5076600;28;20262;-91
2023/07/20 10:22:31;;;;;;;14.55;13.05;;;19.00;71.30;;;;;;5075966;28;20724;-91
2023/07/20 10:24:58;;;;;;;14.50;13.07;;;19.00;72.10;;;;;;5075181;28;20205;-91
2023/07/20 10:27:25;;;;;;;14.60;13.50;;;19.00;71.80;;;;;;5075791;28;20290;-91
2023/07/20 10:29:53;;;;;;;14.50;13.00;;;18.60;69.90;;;;;;5075053;28;20179;-87
2023/07/20 10:32:19;;;;;;;12.45;11.55;;;18.10;71.40;;;;;;5073784;28;20221;-87
2023/07/20 10:34:51;;;;;;;11.43;10.60;;;17.90;73.30;;;;;;5088374;28;20214;-87
2023/07/20 10:38:00;;;;;;;9.82;9.13;;;17.80;76.10;;;;;;5086978;28;20555;-86
2023/07/20 10:40:38;;;;;;;12.15;11.25;;;18.30;77.00;;;;;;5078071;28;20619;-86
2023/07/20 10:43:09;;;;;;;12.85;11.80;;;17.80;74.20;;;;;;5073832;28;20182;-86
2023/07/20 10:45:53;;;;;;;13.02;12.02;;;17.20;74.20;;;;;;5073425;28;20195;-86
2023/07/20 10:48:25;;;;;;;11.80;10.90;;;17.30;74.20;;;;;;5074797;28;20199;-87
2023/07/20 10:51:14;;;;;;;13.55;12.65;;;17.70;76.10;;;;;;5073421;28;20252;-87
2023/07/20 10:53:40;;;;;;;15.27;11.82;;;18.00;73.90;;;;;;5073079;28;20191;-88
2023/07/20 10:56:08;;;;;;;13.55;12.52;;;18.30;70.70;;;;;;5073221;28;20229;-87
2023/07/20 10:58:34;;;;;;;12.98;11.88;;;17.90;72.00;;;;;;5074364;28;20167;-86
2023/07/20 11:01:05;;;;;;;11.85;10.70;;;17.90;73.30;;;;;;5074278;28;20178;-87
2023/07/20 11:03:40;;;;;;;11.93;10.48;;;17.50;73.20;;;;;;5073029;28;20199;-87
2023/07/20 11:06:24;;;;;;;14.07;12.30;;;17.80;75.10;;;;;;5074266;28;20198;-87
2023/07/20 11:09:03;;;;;;;11.68;10.68;;;18.20;74.50;;;;;;5074126;28;20159;-87
2023/07/20 11:11:30;;;;;;;13.18;11.88;;;18.40;75.90;;;;;;5072886;28;20164;-87
2023/07/20 11:14:11;;;;;;;12.82;11.73;;;18.70;74.60;;;;;;5074111;28;20709;-87
2023/07/20 11:16:46;;;;;;;11.50;10.60;;;18.70;74.90;;;;;;5074156;28;20665;-87
2023/07/20 11:19:20;;;;;;;12.07;10.90;;;18.80;75.20;;;;;;5073110;28;20171;-88
2023/07/20 11:21:47;;;;;;;13.20;12.00;;;18.80;74.40;;;;;;5074070;28;20236;-89
2023/07/20 11:24:13;;;;;;;13.45;12.23;;;19.00;73.60;;;;;;5077005;28;20549;-89
2023/07/20 11:26:54;;;;;;;14.00;12.70;;;19.30;74.10;;;;;;5073910;28;20278;-89
2023/07/20 11:29:22;;;;;;;14.55;13.60;;;20.00;70.60;;;;;;5073971;28;20516;-90
2023/07/20 11:31:49;;;;;;;15.25;13.88;;;19.70;67.60;;;;;;5072554;28;20181;-90
2023/07/20 11:34:16;;;;;;;15.40;14.20;;;19.00;70.20;;;;;;5073801;28;20220;-89
2023/07/20 11:36:47;;;;;;;14.73;13.80;;;18.70;69.30;;;;;;5079115;28;20175;-86
2023/07/20 11:39:14;;;;;;;14.20;12.82;;;18.70;69.10;;;;;;5074268;28;20167;-86
2023/07/20 11:41:46;;;;;;;14.60;13.38;;;19.00;67.60;;;;;;5076365;28;20190;-88
2023/07/20 11:44:15;;;;;;;15.27;13.98;;;19.30;67.00;;;;;;5074946;28;20232;-88
2023/07/20 11:46:42;;;;;;;16.52;13.98;;;19.50;66.10;;;;;;5072424;28;20253;-88
2023/07/20 11:49:08;;;;;;;16.10;14.60;;;19.70;67.00;;;;;;5073966;28;20171;-89
2023/07/20 11:51:35;;;;;;;15.10;13.63;;;19.30;68.00;;;;;;5072813;28;20180;-90
2023/07/20 11:54:02;;;;;;;14.98;13.82;;;19.20;69.70;;;;;;5072007;28;20260;-89
2023/07/20 11:56:28;;;;;;;13.80;12.80;;;19.00;70.10;;;;;;5073679;28;20182;-89
2023/07/20 11:59:01;;;;;;;12.90;12.00;;;19.20;68.70;;;;;;5072197;28;20179;-88
2023/07/20 12:01:35;;;;;;;20.60;14.45;;;19.50;69.60;;;;;;5072216;28;20179;-88
2023/07/20 12:04:02;;;;;;;16.73;14.95;;;19.80;67.70;;;;;;5072129;28;20571;-87
2023/07/20 12:06:29;;;;;;;15.50;14.40;;;19.50;64.70;;;;;;5073140;28;20202;-88
2023/07/20 12:08:59;;;;;;;16.63;15.43;;;19.10;66.90;;;;;;5073433;28;20186;-88
2023/07/20 12:11:38;;;;;;;17.27;16.00;;;19.40;64.80;;;;;;5072017;28;20163;-88
2023/07/20 12:14:07;;;;;;;16.75;15.68;;;19.30;63.50;;;;;;5072072;28;20194;-88
2023/07/20 12:16:33;;;;;;;16.38;15.20;;;19.50;64.00;;;;;;5071975;28;20237;-88
2023/07/20 12:19:04;;;;;;;15.15;14.05;;;19.90;62.30;;;;;;5071497;28;20244;-89
2023/07/20 12:21:38;;;;;;;18.40;16.95;;;20.40;62.40;;;;;;5073060;28;20273;-88
2023/07/20 12:24:04;;;;;;;17.85;16.20;;;20.40;62.90;;;;;;5071990;28;20682;-86
2023/07/20 12:26:31;;;;;;;17.73;16.38;;;20.70;61.70;;;;;;5073029;28;20222;-87
2023/07/20 12:28:57;;;;;;;17.65;15.98;;;20.80;61.10;;;;;;5071987;28;20203;-88
2023/07/20 12:31:24;;;;;;;16.63;15.52;;;21.30;62.40;;;;;;5073018;28;20207;-87
2023/07/20 12:33:50;;;;;;;16.67;15.48;;;21.40;58.60;;;;;;5073210;28;20190;-86
2023/07/20 12:36:16;;;;;;;16.73;15.57;;;20.90;59.30;;;;;;5071695;28;20175;-87
2023/07/20 12:38:41;;;;;;;16.52;15.23;;;21.10;61.80;;;;;;5071674;28;20230;-87